Time;durP1;ratioP1;P1;durP2;ratioP2;P2;SDS_P1;SDS_P2;PMS_P1;PMS_P2;Temp;Humidity;BMP_temperature;BMP_pressure;BME280_temperature;BME280_humidity;BME280_pressure;Samples;Min_cycle;Max_cycle;Signal;HPM_P1;HPM_P2
2021/10/24 00:00:19;;;;;;;1.83;0.70;;;;;;;;;;4916293;29;20044;-37
2021/10/24 00:02:46;;;;;;;0.45;0.30;;;;;;;;;;4916163;29;20043;-37
2021/10/24 00:05:12;;;;;;;0.75;0.50;;;;;;;;;;4916278;29;20024;-37
2021/10/24 00:07:37;;;;;;;1.38;0.63;;;;;;;;;;4916501;29;20024;-37
2021/10/24 00:10:03;;;;;;;4.13;1.02;;;;;;;;;;4916174;29;20080;-37
2021/10/24 00:12:28;;;;;;;1.17;0.90;;;;;;;;;;4916044;29;20039;-36
2021/10/24 00:14:55;;;;;;;2.60;0.88;;;;;;;;;;4916127;29;20472;-36
2021/10/24 00:17:20;;;;;;;0.65;0.40;;;;;;;;;;4916104;29;20028;-37
2021/10/24 00:19:46;;;;;;;2.83;0.68;;;;;;;;;;4915983;29;20117;-38
2021/10/24 00:22:11;;;;;;;0.50;0.50;;;;;;;;;;4915301;29;20372;-37
2021/10/24 00:24:36;;;;;;;2.97;0.73;;;;;;;;;;4915907;29;20103;-37
2021/10/24 00:27:02;;;;;;;2.60;0.60;;;;;;;;;;4916229;29;20036;-37
2021/10/24 00:29:28;;;;;;;0.63;0.60;;;;;;;;;;4914601;29;20088;-37
2021/10/24 00:31:54;;;;;;;1.23;0.70;;;;;;;;;;4915750;29;20024;-36
2021/10/24 00:34:19;;;;;;;1.38;0.65;;;;;;;;;;4915619;29;20127;-37
2021/10/24 00:36:44;;;;;;;2.95;0.75;;;;;;;;;;4915888;29;20164;-37
2021/10/24 00:39:10;;;;;;;1.40;0.70;;;;;;;;;;4915631;29;20653;-36
2021/10/24 00:41:35;;;;;;;2.97;0.50;;;;;;;;;;4915419;29;20332;-37
2021/10/24 00:44:20;;;;;;;0.68;0.68;;;;;;;;;;4915654;29;20035;-36
2021/10/24 00:46:46;;;;;;;1.35;0.50;;;;;;;;;;4914317;29;20040;-37
2021/10/24 00:49:12;;;;;;;1.67;1.13;;;;;;;;;;4915561;29;20052;-37
2021/10/24 00:51:37;;;;;;;5.78;0.57;;;;;;;;;;4915452;29;20040;-37
2021/10/24 00:54:03;;;;;;;1.77;0.47;;;;;;;;;;4914313;29;20031;-37
2021/10/24 00:56:28;;;;;;;0.55;0.47;;;;;;;;;;4915439;29;20032;-37
2021/10/24 00:58:53;;;;;;;2.63;0.50;;;;;;;;;;4914017;29;20035;-37
2021/10/24 01:01:19;;;;;;;4.45;0.77;;;;;;;;;;4914145;29;20242;-37
2021/10/24 01:03:44;;;;;;;0.50;0.50;;;;;;;;;;4914056;29;20383;-37
2021/10/24 01:06:11;;;;;;;1.00;0.50;;;;;;;;;;4915349;29;20096;-37
2021/10/24 01:08:37;;;;;;;6.78;0.88;;;;;;;;;;4915442;29;20055;-37
2021/10/24 01:11:03;;;;;;;1.63;0.70;;;;;;;;;;4913971;29;20038;-40
2021/10/24 01:13:30;;;;;;;1.27;0.63;;;;;;;;;;4914012;29;20020;-36
2021/10/24 01:16:09;;;;;;;2.30;1.13;;;;;;;;;;4913784;29;20035;-37
2021/10/24 01:18:36;;;;;;;0.50;0.50;;;;;;;;;;4915060;29;20132;-37
2021/10/24 01:21:01;;;;;;;2.85;0.55;;;;;;;;;;4929753;29;20118;-36
2021/10/24 01:23:27;;;;;;;1.23;0.80;;;;;;;;;;4915311;29;20025;-36
2021/10/24 01:25:53;;;;;;;2.20;0.70;;;;;;;;;;4929626;29;20024;-37
2021/10/24 01:28:19;;;;;;;2.85;0.75;;;;;;;;;;4914976;29;20024;-37
2021/10/24 01:30:45;;;;;;;1.10;0.52;;;;;;;;;;4913762;29;20123;-37
2021/10/24 01:33:13;;;;;;;1.15;0.80;;;;;;;;;;4914431;29;20044;-37
2021/10/24 01:35:51;;;;;;;0.75;0.55;;;;;;;;;;4917718;29;20039;-37
2021/10/24 01:38:17;;;;;;;0.82;0.82;;;;;;;;;;4917726;29;20483;-37
2021/10/24 01:40:42;;;;;;;1.48;0.70;;;;;;;;;;4918785;29;20147;-37
2021/10/24 01:43:08;;;;;;;1.23;0.45;;;;;;;;;;4917720;29;20027;-37
2021/10/24 01:45:34;;;;;;;1.25;0.80;;;;;;;;;;4917646;29;20020;-37
2021/10/24 01:48:09;;;;;;;0.40;0.40;;;;;;;;;;4917612;29;20115;-37
2021/10/24 01:50:35;;;;;;;1.77;0.50;;;;;;;;;;4917573;29;20119;-36
2021/10/24 01:53:00;;;;;;;0.85;0.50;;;;;;;;;;4918502;29;20024;-36
2021/10/24 01:55:26;;;;;;;0.45;0.40;;;;;;;;;;4933383;29;20040;-38
2021/10/24 01:57:53;;;;;;;5.00;0.80;;;;;;;;;;4917308;29;20028;-37
2021/10/24 02:00:19;;;;;;;1.40;0.50;;;;;;;;;;4917274;29;20078;-37
2021/10/24 02:02:50;;;;;;;1.48;0.77;;;;;;;;;;4917188;29;20025;-37
2021/10/24 02:05:41;;;;;;;0.65;0.55;;;;;;;;;;4910464;29;20167;-37
2021/10/24 02:08:08;;;;;;;1.48;0.60;;;;;;;;;;4917115;29;20059;-37
2021/10/24 02:10:33;;;;;;;1.63;0.63;;;;;;;;;;4917239;29;20025;-36
2021/10/24 02:12:59;;;;;;;1.75;0.85;;;;;;;;;;4916997;29;20080;-37
2021/10/24 02:15:28;;;;;;;1.40;0.70;;;;;;;;;;4917017;29;20032;-37
2021/10/24 02:17:55;;;;;;;1.20;0.55;;;;;;;;;;4917015;29;20032;-37
2021/10/24 02:20:26;;;;;;;0.82;0.70;;;;;;;;;;4916795;29;20067;-37
2021/10/24 02:22:52;;;;;;;3.72;0.80;;;;;;;;;;4916886;29;20051;-36
2021/10/24 02:25:18;;;;;;;1.80;0.63;;;;;;;;;;4916851;29;20092;-37
2021/10/24 02:27:45;;;;;;;1.60;0.93;;;;;;;;;;4916821;29;20506;-37
2021/10/24 02:30:12;;;;;;;3.70;0.82;;;;;;;;;;4918094;29;20028;-37
2021/10/24 02:32:38;;;;;;;6.82;1.10;;;;;;;;;;4917904;29;20076;-37
2021/10/24 02:35:06;;;;;;;0.88;0.55;;;;;;;;;;4918033;29;20051;-37
2021/10/24 02:37:41;;;;;;;1.50;0.57;;;;;;;;;;4916592;29;20404;-37
2021/10/24 02:40:10;;;;;;;1.52;0.75;;;;;;;;;;4916646;29;20070;-37
2021/10/24 02:42:37;;;;;;;2.40;0.90;;;;;;;;;;4917904;29;20092;-37
2021/10/24 02:45:03;;;;;;;1.88;0.98;;;;;;;;;;4915667;29;20044;-38
2021/10/24 02:47:30;;;;;;;1.13;0.70;;;;;;;;;;4916499;29;20071;-36
2021/10/24 02:49:55;;;;;;;2.47;0.75;;;;;;;;;;4917549;29;20433;-37
2021/10/24 02:52:21;;;;;;;1.20;0.52;;;;;;;;;;4917628;29;20035;-36
2021/10/24 02:54:46;;;;;;;1.55;0.90;;;;;;;;;;4916257;29;20040;-37
2021/10/24 02:57:12;;;;;;;1.85;0.73;;;;;;;;;;4916278;29;20512;-37
2021/10/24 02:59:37;;;;;;;2.50;1.05;;;;;;;;;;4932204;29;20044;-37
2021/10/24 03:02:03;;;;;;;3.75;1.42;;;;;;;;;;4900383;29;20121;-37
2021/10/24 03:04:30;;;;;;;0.98;0.68;;;;;;;;;;4916179;29;20558;-37
2021/10/24 03:06:55;;;;;;;1.63;0.90;;;;;;;;;;4916162;29;20119;-37
2021/10/24 03:09:21;;;;;;;3.08;1.05;;;;;;;;;;4900404;29;20024;-37
2021/10/24 03:11:47;;;;;;;2.58;1.02;;;;;;;;;;4915945;29;20028;-37
2021/10/24 03:14:13;;;;;;;5.15;1.15;;;;;;;;;;4915991;29;20055;-37
2021/10/24 03:16:40;;;;;;;4.53;2.63;;;;;;;;;;4915985;29;20030;-37
2021/10/24 03:19:06;;;;;;;1.80;1.00;;;;;;;;;;4931704;29;20043;-37
2021/10/24 03:21:32;;;;;;;1.80;0.80;;;;;;;;;;4915895;29;20016;-37
2021/10/24 03:24:00;;;;;;;2.20;1.00;;;;;;;;;;4915834;29;20548;-37
2021/10/24 03:26:26;;;;;;;1.52;0.70;;;;;;;;;;4915910;29;20028;-40
2021/10/24 03:28:52;;;;;;;2.83;1.00;;;;;;;;;;4915745;29;20084;-37
2021/10/24 03:31:18;;;;;;;3.90;1.35;;;;;;;;;;4915730;29;20092;-36
2021/10/24 03:33:43;;;;;;;0.93;0.80;;;;;;;;;;4931269;29;20697;-36
2021/10/24 03:36:09;;;;;;;1.95;1.20;;;;;;;;;;4915717;29;20039;-37
2021/10/24 03:38:34;;;;;;;1.52;0.77;;;;;;;;;;4917019;29;20399;-37
2021/10/24 03:41:00;;;;;;;3.45;0.93;;;;;;;;;;4915454;29;20035;-37
2021/10/24 03:43:27;;;;;;;3.03;0.90;;;;;;;;;;4915543;29;20043;-37
2021/10/24 03:45:52;;;;;;;2.58;0.88;;;;;;;;;;4915401;29;20028;-37
2021/10/24 03:48:18;;;;;;;2.10;0.82;;;;;;;;;;4915422;29;20020;-37
2021/10/24 03:50:48;;;;;;;2.53;1.10;;;;;;;;;;4915282;29;20028;-37
2021/10/24 03:53:14;;;;;;;2.53;1.15;;;;;;;;;;4915312;29;20029;-37
2021/10/24 03:55:40;;;;;;;0.88;0.80;;;;;;;;;;4915251;29;20471;-37
2021/10/24 03:58:05;;;;;;;5.00;1.00;;;;;;;;;;4915226;29;20038;-37
2021/10/24 04:00:31;;;;;;;2.95;1.10;;;;;;;;;;4916394;29;20051;-37
2021/10/24 04:03:05;;;;;;;4.78;0.95;;;;;;;;;;4931019;29;20084;-37
2021/10/24 04:05:44;;;;;;;1.38;0.93;;;;;;;;;;4915084;29;20075;-41
2021/10/24 04:08:09;;;;;;;3.10;0.77;;;;;;;;;;4916400;29;20119;-37
2021/10/24 04:10:34;;;;;;;3.90;1.25;;;;;;;;;;4916405;29;20111;-37
2021/10/24 04:13:00;;;;;;;1.60;0.70;;;;;;;;;;4914909;29;20043;-37
2021/10/24 04:15:26;;;;;;;3.65;1.23;;;;;;;;;;4930682;29;20027;-37
2021/10/24 04:17:53;;;;;;;3.42;1.55;;;;;;;;;;4914898;29;20051;-36
2021/10/24 04:20:21;;;;;;;2.28;1.02;;;;;;;;;;4930541;29;20032;-37
2021/10/24 04:22:47;;;;;;;1.00;0.90;;;;;;;;;;4930500;29;20059;-37
2021/10/24 04:25:13;;;;;;;4.13;1.60;;;;;;;;;;4930574;29;20030;-37
2021/10/24 04:27:39;;;;;;;0.82;0.82;;;;;;;;;;4915989;29;20471;-36
2021/10/24 04:30:06;;;;;;;2.08;0.70;;;;;;;;;;4914677;29;20111;-37
2021/10/24 04:32:32;;;;;;;5.03;1.42;;;;;;;;;;4914496;29;20032;-36
2021/10/24 04:34:58;;;;;;;2.00;1.05;;;;;;;;;;4930247;29;20514;-37
2021/10/24 04:37:23;;;;;;;1.60;0.98;;;;;;;;;;4914560;29;20039;-37
2021/10/24 04:39:49;;;;;;;2.67;1.00;;;;;;;;;;4915548;29;20028;-37
2021/10/24 04:42:14;;;;;;;1.27;1.02;;;;;;;;;;4898594;29;20513;-37
2021/10/24 04:44:40;;;;;;;2.28;0.73;;;;;;;;;;4914278;29;20028;-37
2021/10/24 04:47:06;;;;;;;0.85;0.63;;;;;;;;;;4914431;29;20024;-37
2021/10/24 04:49:31;;;;;;;4.00;1.25;;;;;;;;;;4914376;29;20116;-36
2021/10/24 04:51:57;;;;;;;4.28;1.10;;;;;;;;;;4929948;29;20035;-37
2021/10/24 04:54:23;;;;;;;1.95;1.05;;;;;;;;;;4914357;29;20052;-36
2021/10/24 04:56:50;;;;;;;1.35;1.15;;;;;;;;;;4914147;29;20123;-36
2021/10/24 04:59:16;;;;;;;0.75;0.63;;;;;;;;;;4914237;29;20551;-37
2021/10/24 05:01:43;;;;;;;0.88;0.77;;;;;;;;;;4914036;29;20028;-37
2021/10/24 05:04:09;;;;;;;1.58;1.08;;;;;;;;;;4914142;29;20028;-37
2021/10/24 05:06:34;;;;;;;1.30;0.90;;;;;;;;;;4914228;29;20035;-37
2021/10/24 05:09:01;;;;;;;2.60;0.90;;;;;;;;;;4913596;29;20036;-37
2021/10/24 05:11:28;;;;;;;2.25;0.85;;;;;;;;;;4913991;29;20036;-36
2021/10/24 05:13:54;;;;;;;4.35;1.13;;;;;;;;;;4929702;29;20022;-37
2021/10/24 05:16:19;;;;;;;1.52;0.90;;;;;;;;;;4914043;29;20028;-37
2021/10/24 05:18:45;;;;;;;3.83;0.88;;;;;;;;;;4929637;29;20483;-36
2021/10/24 05:21:13;;;;;;;1.20;0.88;;;;;;;;;;4913885;29;20042;-37
2021/10/24 05:23:38;;;;;;;3.25;1.00;;;;;;;;;;4913910;29;20020;-37
2021/10/24 05:26:04;;;;;;;1.38;0.70;;;;;;;;;;4929645;29;20498;-37
2021/10/24 05:28:34;;;;;;;1.50;0.98;;;;;;;;;;4915068;29;20021;-37
2021/10/24 05:30:59;;;;;;;1.02;0.90;;;;;;;;;;4913700;29;20530;-37
2021/10/24 05:33:25;;;;;;;5.35;1.30;;;;;;;;;;4891710;29;20049;-37
2021/10/24 05:36:17;;;;;;;3.72;0.82;;;;;;;;;;4895977;29;20045;-36
2021/10/24 05:38:43;;;;;;;2.03;1.10;;;;;;;;;;4895989;29;20488;-37
2021/10/24 05:41:14;;;;;;;1.35;0.88;;;;;;;;;;4879279;29;20134;-37
2021/10/24 05:43:39;;;;;;;1.67;0.82;;;;;;;;;;4879346;29;20224;-37
2021/10/24 05:46:06;;;;;;;2.90;1.00;;;;;;;;;;4879261;29;20032;-36
2021/10/24 05:48:31;;;;;;;1.58;0.88;;;;;;;;;;4910550;29;20024;-37
2021/10/24 05:51:05;;;;;;;1.60;0.88;;;;;;;;;;4879147;29;20035;-36
2021/10/24 05:53:31;;;;;;;1.50;1.05;;;;;;;;;;4879280;29;20032;-37
2021/10/24 05:55:57;;;;;;;1.23;1.13;;;;;;;;;;4879015;29;20467;-36
2021/10/24 05:58:23;;;;;;;4.18;1.00;;;;;;;;;;4879292;29;20153;-37
2021/10/24 06:01:06;;;;;;;2.20;0.82;;;;;;;;;;4879151;29;20404;-37
2021/10/24 06:04:10;;;;;;;;;;;;;;;;;;4894103;29;20080;-37
2021/10/24 06:06:54;;;;;;;2.30;0.88;;;;;;;;;;4893616;29;19964;-36
2021/10/24 06:09:28;;;;;;;2.60;1.23;;;;;;;;;;4894840;29;20076;-37
2021/10/24 06:12:04;;;;;;;3.75;1.10;;;;;;;;;;4894556;29;20040;-37
2021/10/24 06:14:29;;;;;;;0.95;0.95;;;;;;;;;;4896070;29;20396;-38
2021/10/24 06:16:54;;;;;;;1.33;0.57;;;;;;;;;;4895767;29;20025;-37
2021/10/24 06:19:20;;;;;;;4.55;0.70;;;;;;;;;;4894600;29;20041;-37
2021/10/24 06:21:46;;;;;;;4.47;1.23;;;;;;;;;;4898708;29;20092;-36
2021/10/24 06:24:11;;;;;;;0.88;0.80;;;;;;;;;;4899291;29;20671;-37
2021/10/24 06:26:37;;;;;;;3.47;1.08;;;;;;;;;;4898113;29;20020;-38
2021/10/24 06:29:03;;;;;;;3.58;1.10;;;;;;;;;;4897934;29;20504;-36
2021/10/24 06:31:29;;;;;;;1.30;0.80;;;;;;;;;;4882338;29;20029;-37
2021/10/24 06:34:13;;;;;;;0.73;0.70;;;;;;;;;;4911787;29;20625;-36
2021/10/24 06:37:02;;;;;;;1.35;1.00;;;;;;;;;;4916657;29;20044;-36
2021/10/24 06:39:32;;;;;;;7.38;1.20;;;;;;;;;;4916630;29;20067;-36
2021/10/24 06:41:57;;;;;;;0.73;0.73;;;;;;;;;;4916425;29;20479;-37
2021/10/24 06:44:41;;;;;;;1.88;1.15;;;;;;;;;;4918045;29;20491;-38
2021/10/24 06:47:27;;;;;;;1.30;0.80;;;;;;;;;;4907076;29;20040;-36
2021/10/24 06:50:11;;;;;;;3.88;1.13;;;;;;;;;;4918035;29;20042;-36
2021/10/24 06:52:56;;;;;;;4.38;1.02;;;;;;;;;;4917873;29;20543;-36
2021/10/24 06:55:50;;;;;;;2.92;1.13;;;;;;;;;;4908154;29;20040;-36
2021/10/24 06:58:51;;;;;;;1.35;0.98;;;;;;;;;;4877533;29;20037;-36
2021/10/24 07:01:37;;;;;;;1.92;1.15;;;;;;;;;;4913162;29;20040;-36
2021/10/24 07:04:38;;;;;;;3.47;1.33;;;;;;;;;;4915212;29;20040;-36
2021/10/24 07:07:13;;;;;;;4.40;1.15;;;;;;;;;;4913197;29;20055;-36
2021/10/24 07:10:05;;;;;;;0.95;0.70;;;;;;;;;;4916104;29;20130;-37
2021/10/24 07:12:33;;;;;;;1.70;0.95;;;;;;;;;;4931851;29;20055;-37
2021/10/24 07:14:58;;;;;;;3.45;1.13;;;;;;;;;;4915991;29;20467;-37
2021/10/24 07:17:24;;;;;;;2.75;1.30;;;;;;;;;;4931784;29;20091;-36
2021/10/24 07:19:50;;;;;;;11.48;2.22;;;;;;;;;;4917285;29;20032;-37
2021/10/24 07:22:16;;;;;;;4.50;1.02;;;;;;;;;;4915781;29;20488;-36
2021/10/24 07:25:00;;;;;;;9.63;1.10;;;;;;;;;;4917328;29;20107;-36
2021/10/24 07:27:30;;;;;;;2.13;1.05;;;;;;;;;;4931664;29;20032;-37
2021/10/24 07:29:58;;;;;;;1.95;0.80;;;;;;;;;;4915723;29;20044;-37
2021/10/24 07:32:24;;;;;;;1.90;0.90;;;;;;;;;;4915408;29;20032;-36
2021/10/24 07:34:56;;;;;;;1.17;0.57;;;;;;;;;;4915483;29;20498;-37
2021/10/24 07:37:22;;;;;;;6.40;1.05;;;;;;;;;;4915692;29;20032;-36
2021/10/24 07:39:48;;;;;;;4.95;1.08;;;;;;;;;;4899714;29;20511;-36
2021/10/24 07:42:13;;;;;;;3.50;1.20;;;;;;;;;;4916673;29;20060;-36
2021/10/24 07:44:41;;;;;;;9.10;1.50;;;;;;;;;;4916696;29;20020;-36
2021/10/24 07:47:07;;;;;;;3.05;2.10;;;;;;;;;;4916669;29;20510;-36
2021/10/24 07:49:33;;;;;;;2.05;0.90;;;;;;;;;;4915492;29;20024;-36
2021/10/24 07:52:01;;;;;;;0.95;0.80;;;;;;;;;;4899855;29;20040;-37
2021/10/24 07:54:27;;;;;;;1.52;0.95;;;;;;;;;;4915397;29;20024;-40
2021/10/24 07:56:52;;;;;;;3.30;1.55;;;;;;;;;;4915173;29;20403;-36
2021/10/24 07:59:27;;;;;;;2.55;0.73;;;;;;;;;;4916695;29;20047;-36
2021/10/24 08:01:56;;;;;;;1.13;1.02;;;;;;;;;;4914983;29;20123;-36
2021/10/24 08:04:23;;;;;;;1.42;1.13;;;;;;;;;;4915209;29;20115;-36
2021/10/24 08:06:49;;;;;;;2.92;1.42;;;;;;;;;;4915079;29;20547;-37
2021/10/24 08:09:15;;;;;;;8.85;1.17;;;;;;;;;;4899496;29;20051;-36
2021/10/24 08:11:47;;;;;;;3.28;1.20;;;;;;;;;;4914903;29;20043;-37
2021/10/24 08:14:13;;;;;;;2.90;1.15;;;;;;;;;;4930732;29;20036;-37
2021/10/24 08:16:40;;;;;;;3.47;1.23;;;;;;;;;;4914919;29;20060;-36
2021/10/24 08:19:08;;;;;;;1.38;0.85;;;;;;;;;;4914857;29;20032;-37
2021/10/24 08:21:41;;;;;;;2.17;1.00;;;;;;;;;;4914830;29;20052;-36
2021/10/24 08:24:06;;;;;;;1.52;0.57;;;;;;;;;;4914795;29;20068;-36
2021/10/24 08:26:37;;;;;;;1.58;1.13;;;;;;;;;;4914770;29;20123;-36
2021/10/24 08:29:03;;;;;;;3.33;1.27;;;;;;;;;;4930477;29;20563;-37
2021/10/24 08:31:54;;;;;;;1.58;1.05;;;;;;;;;;4905877;29;20127;-36
2021/10/24 08:34:20;;;;;;;2.70;0.68;;;;;;;;;;4901828;29;20512;-36
2021/10/24 08:36:46;;;;;;;1.13;1.00;;;;;;;;;;4897068;29;20089;-36
2021/10/24 08:39:11;;;;;;;1.20;0.77;;;;;;;;;;4880144;29;20484;-36
2021/10/24 08:41:38;;;;;;;1.17;0.60;;;;;;;;;;4896845;29;20024;-36
2021/10/24 08:44:04;;;;;;;1.38;0.68;;;;;;;;;;4896131;29;20064;-36
2021/10/24 08:46:30;;;;;;;3.03;0.93;;;;;;;;;;4896779;29;20483;-37
2021/10/24 08:48:57;;;;;;;0.60;0.40;;;;;;;;;;4896714;29;20040;-37
2021/10/24 08:51:23;;;;;;;1.15;0.77;;;;;;;;;;4895600;29;20080;-37
2021/10/24 08:53:49;;;;;;;4.20;1.33;;;;;;;;;;4896801;29;20037;-38
2021/10/24 08:56:19;;;;;;;2.83;0.68;;;;;;;;;;4896634;29;20020;-37
2021/10/24 08:58:45;;;;;;;3.95;0.88;;;;;;;;;;4896534;29;20032;-36
2021/10/24 09:01:11;;;;;;;3.03;1.60;;;;;;;;;;4896488;29;20025;-36
2021/10/24 09:03:38;;;;;;;4.95;1.30;;;;;;;;;;4896550;29;20036;-37
2021/10/24 09:06:06;;;;;;;4.13;0.85;;;;;;;;;;4896401;29;20029;-36
2021/10/24 09:08:35;;;;;;;0.82;0.80;;;;;;;;;;4896557;29;20025;-36
2021/10/24 09:11:02;;;;;;;1.33;0.70;;;;;;;;;;4896550;29;20020;-36
2021/10/24 09:13:32;;;;;;;1.10;0.50;;;;;;;;;;4896616;29;20040;-36
2021/10/24 09:16:00;;;;;;;0.20;0.20;;;;;;;;;;4896597;29;20039;-37
2021/10/24 09:18:37;;;;;;;0.82;0.60;;;;;;;;;;4896396;29;20036;-36
2021/10/24 09:21:26;;;;;;;0.82;0.68;;;;;;;;;;4894888;29;20045;-37
2021/10/24 09:24:18;;;;;;;0.77;0.63;;;;;;;;;;4884183;29;20056;-37
2021/10/24 09:26:43;;;;;;;4.07;0.88;;;;;;;;;;4891863;29;20056;-37
2021/10/24 09:29:15;;;;;;;2.53;0.50;;;;;;;;;;4896445;29;20047;-36
2021/10/24 09:31:49;;;;;;;2.55;0.65;;;;;;;;;;4896104;29;20065;-37
2021/10/24 09:34:15;;;;;;;1.35;0.85;;;;;;;;;;4908084;29;20046;-36
2021/10/24 09:37:01;;;;;;;3.50;0.65;;;;;;;;;;4914982;29;20115;-37
2021/10/24 09:39:41;;;;;;;1.00;0.80;;;;;;;;;;4915226;29;20134;-36
2021/10/24 09:42:16;;;;;;;1.98;0.95;;;;;;;;;;4915022;29;20439;-37
2021/10/24 09:45:00;;;;;;;1.98;0.63;;;;;;;;;;4915220;29;20400;-37
2021/10/24 09:47:26;;;;;;;1.85;1.10;;;;;;;;;;4914968;29;20047;-36
2021/10/24 09:49:51;;;;;;;2.85;2.05;;;;;;;;;;4914772;29;20032;-36
2021/10/24 09:52:33;;;;;;;0.63;0.57;;;;;;;;;;4914926;29;20463;-37
2021/10/24 09:55:14;;;;;;;1.05;0.85;;;;;;;;;;4915722;29;20036;-36
2021/10/24 09:57:40;;;;;;;1.08;0.70;;;;;;;;;;4933298;29;20040;-37
2021/10/24 10:00:06;;;;;;;1.83;0.70;;;;;;;;;;4917273;29;20036;-37
2021/10/24 10:02:38;;;;;;;2.83;0.80;;;;;;;;;;4918558;29;20508;-36
2021/10/24 10:05:03;;;;;;;1.70;0.90;;;;;;;;;;4918641;29;20043;-36
2021/10/24 10:07:29;;;;;;;0.35;0.30;;;;;;;;;;4918733;29;20050;-37
2021/10/24 10:09:55;;;;;;;1.70;0.70;;;;;;;;;;4918345;29;20039;-37
2021/10/24 10:12:22;;;;;;;3.50;1.25;;;;;;;;;;4918352;29;20020;-37
2021/10/24 10:14:53;;;;;;;1.80;0.82;;;;;;;;;;4917087;29;20491;-37
2021/10/24 10:17:20;;;;;;;2.38;1.02;;;;;;;;;;4918510;29;20028;-36
2021/10/24 10:19:47;;;;;;;3.25;0.68;;;;;;;;;;4918510;29;20110;-37
2021/10/24 10:22:34;;;;;;;4.05;0.88;;;;;;;;;;4904723;29;20194;-37
2021/10/24 10:25:07;;;;;;;1.58;0.50;;;;;;;;;;4918144;29;20036;-36
2021/10/24 10:27:35;;;;;;;0.80;0.73;;;;;;;;;;4918196;29;20044;-37
2021/10/24 10:30:01;;;;;;;8.52;0.98;;;;;;;;;;4918108;29;20020;-37
2021/10/24 10:32:33;;;;;;;0.93;0.82;;;;;;;;;;4917980;29;20036;-37
2021/10/24 10:35:01;;;;;;;1.50;0.80;;;;;;;;;;4917847;29;20052;-36
2021/10/24 10:37:50;;;;;;;3.28;1.25;;;;;;;;;;4918026;29;20036;-36
2021/10/24 10:40:26;;;;;;;1.15;0.95;;;;;;;;;;4917825;29;20036;-37
2021/10/24 10:42:54;;;;;;;4.13;0.70;;;;;;;;;;4917724;29;20396;-36
2021/10/24 10:45:21;;;;;;;0.90;0.50;;;;;;;;;;4917616;29;20028;-37
2021/10/24 10:47:50;;;;;;;3.80;0.98;;;;;;;;;;4916439;29;20039;-36
2021/10/24 10:50:27;;;;;;;2.33;0.90;;;;;;;;;;4917642;29;20035;-36
2021/10/24 10:52:54;;;;;;;1.95;0.63;;;;;;;;;;4917488;29;20475;-37
2021/10/24 10:55:19;;;;;;;1.23;0.65;;;;;;;;;;4917695;29;20020;-36
2021/10/24 10:57:46;;;;;;;1.02;0.60;;;;;;;;;;4917652;29;20497;-37
2021/10/24 11:00:29;;;;;;;0.65;0.50;;;;;;;;;;4917382;29;20075;-37
2021/10/24 11:02:55;;;;;;;3.95;0.90;;;;;;;;;;4917746;29;20028;-37
2021/10/24 11:05:37;;;;;;;3.50;0.65;;;;;;;;;;4917258;29;20423;-36
2021/10/24 11:08:02;;;;;;;3.15;0.65;;;;;;;;;;4917267;29;20047;-37
2021/10/24 11:10:44;;;;;;;0.60;0.60;;;;;;;;;;4917396;29;20016;-37
2021/10/24 11:13:28;;;;;;;1.08;0.70;;;;;;;;;;4917248;29;20059;-36
2021/10/24 11:15:54;;;;;;;3.55;0.82;;;;;;;;;;4915979;29;20047;-37
2021/10/24 11:18:30;;;;;;;1.10;0.63;;;;;;;;;;4916027;29;20024;-37
2021/10/24 11:20:56;;;;;;;1.25;0.90;;;;;;;;;;4917120;29;20046;-36
2021/10/24 11:23:22;;;;;;;1.50;0.70;;;;;;;;;;4917121;29;20020;-37
2021/10/24 11:25:49;;;;;;;3.05;0.90;;;;;;;;;;4917156;29;20482;-36
2021/10/24 11:28:19;;;;;;;2.88;0.95;;;;;;;;;;4900075;29;20382;-36
2021/10/24 11:30:45;;;;;;;1.33;1.02;;;;;;;;;;4917092;29;20080;-36
2021/10/24 11:33:11;;;;;;;4.35;0.88;;;;;;;;;;4916803;29;20541;-36
2021/10/24 11:35:38;;;;;;;4.82;1.02;;;;;;;;;;4917171;29;20067;-36
2021/10/24 11:38:05;;;;;;;1.40;1.05;;;;;;;;;;4916870;29;20100;-36
2021/10/24 11:40:34;;;;;;;6.97;1.33;;;;;;;;;;4916799;29;20496;-37
2021/10/24 11:43:14;;;;;;;1.92;0.73;;;;;;;;;;4916750;29;20570;-38
2021/10/24 11:45:41;;;;;;;2.17;0.90;;;;;;;;;;4917091;29;20039;-37
2021/10/24 11:48:06;;;;;;;3.03;0.90;;;;;;;;;;4916702;29;20024;-36
2021/10/24 11:50:43;;;;;;;2.30;0.70;;;;;;;;;;4915455;29;20105;-38
2021/10/24 11:53:19;;;;;;;2.65;1.05;;;;;;;;;;4916672;29;20028;-37
2021/10/24 11:55:47;;;;;;;2.00;1.30;;;;;;;;;;4916740;29;20123;-37
2021/10/24 12:01:23;;;;;;;1.80;0.88;;;;;;;;;;4901017;29;20071;-36
2021/10/24 12:04:00;;;;;;;2.83;1.00;;;;;;;;;;4916331;29;20032;-36
2021/10/24 12:06:44;;;;;;;1.33;1.20;;;;;;;;;;4916374;29;20111;-37
2021/10/24 12:09:13;;;;;;;2.97;1.00;;;;;;;;;;4916510;29;20119;-36
2021/10/24 12:11:43;;;;;;;1.77;0.98;;;;;;;;;;4915098;29;20173;-36
2021/10/24 12:14:13;;;;;;;2.15;1.30;;;;;;;;;;4915207;29;20074;-37
2021/10/24 12:16:42;;;;;;;4.00;0.95;;;;;;;;;;4916102;29;20111;-37
2021/10/24 12:19:11;;;;;;;4.28;1.33;;;;;;;;;;4914934;29;20138;-37
2021/10/24 12:21:36;;;;;;;1.15;0.70;;;;;;;;;;4914813;29;20495;-36
2021/10/24 12:24:16;;;;;;;1.02;0.93;;;;;;;;;;4916042;29;20028;-36
2021/10/24 12:26:42;;;;;;;2.80;1.00;;;;;;;;;;4916254;29;20059;-37
2021/10/24 12:29:16;;;;;;;1.52;0.70;;;;;;;;;;4916026;29;20024;-37
2021/10/24 12:31:42;;;;;;;2.03;0.90;;;;;;;;;;4915860;29;20471;-36
2021/10/24 12:34:15;;;;;;;1.20;0.50;;;;;;;;;;4915705;29;20051;-37
2021/10/24 12:36:42;;;;;;;1.27;1.10;;;;;;;;;;4915800;29;20032;-37
2021/10/24 12:39:08;;;;;;;2.95;0.95;;;;;;;;;;4915693;29;20055;-36
2021/10/24 12:41:36;;;;;;;1.55;0.93;;;;;;;;;;4915606;29;20067;-36
2021/10/24 12:44:03;;;;;;;4.40;1.00;;;;;;;;;;4914475;29;20024;-37
2021/10/24 12:46:33;;;;;;;3.20;1.55;;;;;;;;;;4915607;29;20032;-37
2021/10/24 12:49:09;;;;;;;4.45;0.77;;;;;;;;;;4915839;29;20035;-37
2021/10/24 12:51:34;;;;;;;2.97;1.05;;;;;;;;;;4915723;29;20032;-37
2021/10/24 12:54:01;;;;;;;3.10;0.95;;;;;;;;;;4915657;29;20023;-37
2021/10/24 12:56:27;;;;;;;1.60;1.13;;;;;;;;;;4915572;29;20365;-36
2021/10/24 12:58:52;;;;;;;1.42;0.98;;;;;;;;;;4915408;29;20027;-37
2021/10/24 13:01:30;;;;;;;0.98;0.50;;;;;;;;;;4915336;29;20035;-36
2021/10/24 13:03:57;;;;;;;1.42;1.10;;;;;;;;;;4915413;29;20055;-37
2021/10/24 13:06:23;;;;;;;1.02;0.68;;;;;;;;;;4915417;29;20110;-37
2021/10/24 13:08:49;;;;;;;2.92;0.77;;;;;;;;;;4915595;29;20032;-37
2021/10/24 13:11:15;;;;;;;1.63;0.90;;;;;;;;;;4915466;29;20523;-37
2021/10/24 13:13:41;;;;;;;2.60;1.05;;;;;;;;;;4914113;29;20036;-38
2021/10/24 13:16:07;;;;;;;1.23;0.90;;;;;;;;;;4915468;29;20032;-37
2021/10/24 13:18:33;;;;;;;3.05;1.65;;;;;;;;;;4915504;29;20084;-38
2021/10/24 13:21:05;;;;;;;1.45;0.80;;;;;;;;;;4915081;29;20039;-37
2021/10/24 13:23:31;;;;;;;2.40;1.20;;;;;;;;;;4914026;29;20028;-36
2021/10/24 13:25:57;;;;;;;2.25;0.98;;;;;;;;;;4915425;29;20030;-37
2021/10/24 13:28:23;;;;;;;1.83;0.98;;;;;;;;;;4915139;29;20093;-37
2021/10/24 13:30:49;;;;;;;2.42;1.23;;;;;;;;;;4914776;29;20383;-36
2021/10/24 13:33:16;;;;;;;1.33;0.95;;;;;;;;;;4915062;29;20139;-37
2021/10/24 13:35:42;;;;;;;1.55;1.20;;;;;;;;;;4915173;29;20531;-36
2021/10/24 13:38:11;;;;;;;3.97;1.33;;;;;;;;;;4914945;29;20694;-37
2021/10/24 13:40:37;;;;;;;1.27;0.90;;;;;;;;;;4914936;29;20074;-37
2021/10/24 13:43:04;;;;;;;3.42;1.13;;;;;;;;;;4915172;29;20071;-37
2021/10/24 13:45:29;;;;;;;1.40;1.15;;;;;;;;;;4915222;29;20089;-36
2021/10/24 13:47:56;;;;;;;2.13;1.20;;;;;;;;;;4914883;29;20468;-37
2021/10/24 13:50:21;;;;;;;1.20;0.70;;;;;;;;;;4915176;29;20028;-37
2021/10/24 13:52:47;;;;;;;2.17;1.17;;;;;;;;;;4914917;29;20555;-37
2021/10/24 13:55:12;;;;;;;1.92;0.85;;;;;;;;;;4914860;29;20028;-37
2021/10/24 13:57:39;;;;;;;1.90;0.90;;;;;;;;;;4915178;29;20475;-37
2021/10/24 14:00:05;;;;;;;2.72;1.00;;;;;;;;;;4914609;29;20440;-37
2021/10/24 14:02:31;;;;;;;2.53;1.10;;;;;;;;;;4914900;29;20035;-37
2021/10/24 14:04:57;;;;;;;0.85;0.70;;;;;;;;;;4914734;29;20032;-37
2021/10/24 14:07:23;;;;;;;1.35;0.90;;;;;;;;;;4913723;29;20423;-37
2021/10/24 14:09:50;;;;;;;0.60;0.50;;;;;;;;;;4915071;29;20111;-37
2021/10/24 14:12:17;;;;;;;2.47;0.80;;;;;;;;;;4914665;29;20032;-37
2021/10/24 14:14:43;;;;;;;3.22;1.48;;;;;;;;;;4915024;29;20545;-37
2021/10/24 14:17:08;;;;;;;1.23;0.80;;;;;;;;;;4914894;29;20111;-37
2021/10/24 14:19:34;;;;;;;2.47;0.90;;;;;;;;;;4914594;29;20120;-37
2021/10/24 14:22:00;;;;;;;0.77;0.77;;;;;;;;;;4914576;29;20032;-37
2021/10/24 14:24:25;;;;;;;1.45;0.85;;;;;;;;;;4914597;29;20103;-37
2021/10/24 14:26:50;;;;;;;1.60;0.77;;;;;;;;;;4914610;29;20092;-37
2021/10/24 14:29:16;;;;;;;2.75;0.82;;;;;;;;;;4914600;29;20024;-36
2021/10/24 14:31:42;;;;;;;1.42;1.10;;;;;;;;;;4914388;29;20036;-37
2021/10/24 14:34:08;;;;;;;2.15;0.82;;;;;;;;;;4914448;29;20111;-37
2021/10/24 14:36:34;;;;;;;2.15;0.82;;;;;;;;;;4914807;29;20032;-37
2021/10/24 14:39:00;;;;;;;1.08;0.90;;;;;;;;;;4914409;29;20034;-37
2021/10/24 14:41:25;;;;;;;3.10;1.25;;;;;;;;;;4915529;29;20472;-37
2021/10/24 14:43:51;;;;;;;1.10;1.00;;;;;;;;;;4918150;29;20484;-37
2021/10/24 14:46:16;;;;;;;1.80;1.10;;;;;;;;;;4917866;29;20043;-37
2021/10/24 14:48:42;;;;;;;1.90;0.90;;;;;;;;;;4917864;29;20023;-37
2021/10/24 14:51:07;;;;;;;0.60;0.57;;;;;;;;;;4917607;29;20399;-37
2021/10/24 14:53:33;;;;;;;0.93;0.80;;;;;;;;;;4917848;29;20124;-37
2021/10/24 14:56:01;;;;;;;2.00;1.05;;;;;;;;;;4917549;29;20054;-38